Laramie Regional Airport
KLAR : now visible

Aeroporto :











RITROVATECI SU...

 
LOGIN :

Iscrizione | Disclaimer

   EN    FR    IT 

 









Sommario :    VFR   VFR Marginale   IFR   IFR Intensivo   IFR Molto Intensivo
Visibilità : 
Base nubi : 
>= 8 km
>= 3000ft
5 / 8 km
1000 / 3000 ft
1500m / 5 km
500 / 1000 ft
800 / 1500m
200 / 500 ft
< 800m
< 200 ft
Simboli :   Temporali  Nebbia  Neve Forte  Precipitazioni Forti  Vento > 20 kt






- Altitudine del aeroporto : 7284 ft
- Codice IATA : LAR


KLAR - Laramie Regional

ULTIMO METAR :
  • 051653Z AUTO 10005KT 10SM CLR M02/M11 A3044 RMK AO2 SLP355 T10171111 $

METARs OBSOLETI :
  • 051553Z AUTO 15006KT 10SM CLR M08/M12 A3044 RMK AO2 SLP372 T10781122 $
  • 051453Z AUTO 17003KT 10SM CLR M13/ A3044 RMK AO2 SLP386 T1133 53003 $

TAF KLAR
Valido dal 05 a 12 ore il 06 a 12 ore UTC


051120Z 0512/0612 16007KT P6SM SKC
FM060100 18009KT P6SM SKC
FIR KZDV / America del Nord



MetMap, La meteo Aeronautica in un colpo d'occhio ! - Copyright ORBIFLY Dicembre 2007 - Disclaimer

ORBIFLY MET'MAP TEAM :

Programmazione e sviluppo : Alexandra Zaïnal
Concezione : Baudouin d'Aumeries
Aiuto per la programmazione : Marc-Olivier Méhu
Supporto tecnico e logistico : Manuel Goepfert
Aiuto per la traduzione : Arnaldo La Scala

Contatto : metmap@orbifly.com




FONTI E CREDITI :

   NOAA       Earth
Advisory